Time;durP1;ratioP1;P1;durP2;ratioP2;P2;SDS_P1;SDS_P2;PMS_P1;PMS_P2;Temp;Humidity;BMP_temperature;BMP_pressure;BME280_temperature;BME280_humidity;BME280_pressure;Samples;Min_cycle;Max_cycle;Signal;HPM_P1;HPM_P2
2021/08/06 00:01:48;;;;;;;11.83;9.53;;;;;;;17.15;100.00;99300.92;2943215;79;21028;-61
2021/08/06 00:05:54;;;;;;;13.65;9.85;;;;;;;17.11;100.00;99298.31;2980740;79;20984;-61
2021/08/06 00:09:56;;;;;;;11.57;10.20;;;;;;;17.11;100.00;99297.78;2958916;79;21063;-60
2021/08/06 00:13:59;;;;;;;13.70;9.88;;;;;;;17.07;100.00;99294.32;2953059;80;20992;-60
2021/08/06 00:18:01;;;;;;;12.33;10.15;;;;;;;17.04;100.00;99297.40;2904247;80;21071;-62
2021/08/06 00:22:04;;;;;;;10.63;8.53;;;;;;;16.99;100.00;99290.75;2917114;81;21023;-60
2021/08/06 00:26:07;;;;;;;13.18;10.93;;;;;;;16.97;100.00;99291.42;2928248;81;20948;-62
2021/08/06 00:30:11;;;;;;;17.50;12.28;;;;;;;16.93;100.00;99283.44;3034679;78;20948;-62
2021/08/06 00:34:13;;;;;;;10.43;9.08;;;;;;;16.87;100.00;99292.25;3033626;77;21016;-60
2021/08/06 00:38:16;;;;;;;11.05;8.00;;;;;;;16.87;100.00;99290.09;3033584;78;21015;-61
2021/08/06 00:42:17;;;;;;;8.48;7.28;;;;;;;16.88;100.00;99283.16;3034017;78;21517;-60
2021/08/06 00:46:20;;;;;;;11.50;7.62;;;;;;;16.88;100.00;99296.59;3033781;77;20992;-60
2021/08/06 00:50:23;;;;;;;9.45;8.45;;;;;;;16.88;100.00;99298.46;3034130;78;20975;-62
2021/08/06 00:54:25;;;;;;;10.03;8.88;;;;;;;16.88;100.00;99291.22;3033735;78;20921;-62
2021/08/06 00:58:28;;;;;;;10.75;9.18;;;;;;;16.91;100.00;99288.18;3086500;77;21003;-61
2021/08/06 01:02:42;;;;;;;9.15;8.30;;;;;;;16.92;100.00;99292.52;2955865;79;21023;-61
2021/08/06 01:06:54;;;;;;;12.18;9.13;;;;;;;16.95;100.00;99291.29;2942485;80;21044;-61
2021/08/06 01:11:02;;;;;;;11.22;8.95;;;;;;;16.91;100.00;99294.05;2894073;80;21537;-63
2021/08/06 01:15:07;;;;;;;10.78;7.83;;;;;;;16.94;100.00;99295.00;3028709;78;20960;-59
2021/08/06 01:19:25;;;;;;;12.27;9.40;;;;;;;16.94;100.00;99300.37;3034085;78;21477;-62
2021/08/06 01:23:34;;;;;;;8.23;7.42;;;;;;;16.91;100.00;99289.52;3033915;78;20968;-60
2021/08/06 01:27:41;;;;;;;9.58;8.58;;;;;;;16.85;100.00;99288.92;3033991;78;20944;-61
2021/08/06 01:31:43;;;;;;;10.05;9.08;;;;;;;16.80;100.00;99296.73;3033888;78;20976;-62
2021/08/06 01:35:46;;;;;;;12.28;8.98;;;;;;;16.86;100.00;99290.58;3033904;78;21028;-59
2021/08/06 01:39:48;;;;;;;9.13;8.23;;;;;;;16.87;100.00;99298.95;3033889;78;21090;-61
2021/08/06 01:44:24;;;;;;;9.45;8.25;;;;;;;16.92;100.00;99299.73;3033918;78;21481;-61
2021/08/06 01:48:35;;;;;;;10.35;8.15;;;;;;;16.92;100.00;99295.70;3049243;77;20972;-61
2021/08/06 01:52:59;;;;;;;10.30;7.35;;;;;;;16.99;100.00;99291.25;3053485;78;20971;-60
2021/08/06 01:57:02;;;;;;;9.88;8.88;;;;;;;17.01;100.00;99290.58;3053563;78;20985;-59
2021/08/06 02:01:04;;;;;;;13.55;8.85;;;;;;;16.98;100.00;99281.50;3053845;78;20916;-62
2021/08/06 02:05:09;;;;;;;10.40;8.28;;;;;;;16.95;100.00;99281.39;3054047;78;20971;-60
2021/08/06 02:14:33;;;;;;;10.50;8.48;;;;;;;16.88;100.00;99269.73;3052976;78;21022;-62
2021/08/06 02:19:13;;;;;;;10.60;9.48;;;;;;;16.91;100.00;99250.58;3054201;78;20945;-62
2021/08/06 02:23:15;;;;;;;9.33;8.23;;;;;;;16.97;100.00;99244.42;3052396;78;20948;-64
2021/08/06 02:27:54;;;;;;;10.20;8.73;;;;;;;16.97;100.00;99251.14;3054075;78;20995;-61
2021/08/06 02:31:59;;;;;;;10.25;9.15;;;;;;;16.88;100.00;99252.80;3053841;78;21015;-60
2021/08/06 02:36:03;;;;;;;11.30;10.10;;;;;;;16.75;100.00;99252.17;3054279;78;20991;-62
2021/08/06 02:44:59;;;;;;;14.20;11.65;;;;;;;16.75;100.00;99242.77;2958965;80;20951;-61
2021/08/06 02:49:01;;;;;;;11.22;10.25;;;;;;;16.76;100.00;99233.69;2962151;80;20962;-63
2021/08/06 02:53:03;;;;;;;14.10;9.95;;;;;;;16.83;100.00;99234.58;2962949;80;21003;-59
2021/08/06 02:57:04;;;;;;;11.15;10.03;;;;;;;16.84;100.00;99235.73;2962519;80;21014;-64
2021/08/06 03:01:07;;;;;;;9.90;8.70;;;;;;;16.82;100.00;99232.91;2963136;80;21006;-61
2021/08/06 03:05:10;;;;;;;13.75;10.18;;;;;;;16.83;100.00;99237.26;2963115;80;20974;-60
2021/08/06 03:09:12;;;;;;;17.82;11.43;;;;;;;16.82;100.00;99228.39;2960961;80;21033;-65
2021/08/06 03:13:14;;;;;;;12.58;10.70;;;;;;;16.85;100.00;99232.52;2943903;81;21009;-62
2021/08/06 03:17:16;;;;;;;17.37;11.80;;;;;;;16.84;100.00;99233.05;2943893;80;20977;-62
2021/08/06 03:21:19;;;;;;;13.85;9.75;;;;;;;16.86;100.00;99235.53;2943899;80;20970;-62
2021/08/06 03:25:21;;;;;;;17.35;12.23;;;;;;;16.88;100.00;99236.69;2943531;80;21060;-63
2021/08/06 03:29:23;;;;;;;14.73;13.28;;;;;;;16.87;100.00;99228.31;2943750;80;20949;-62
2021/08/06 03:33:24;;;;;;;10.90;9.73;;;;;;;16.88;100.00;99229.45;2943836;80;20950;-63
2021/08/06 03:37:28;;;;;;;13.75;12.35;;;;;;;16.89;100.00;99229.77;2943655;80;20993;-62
2021/08/06 03:41:30;;;;;;;16.77;13.45;;;;;;;16.86;100.00;99222.09;2941803;81;20967;-64
2021/08/06 03:45:31;;;;;;;14.53;13.03;;;;;;;16.86;100.00;99226.13;2932543;81;21009;-62
2021/08/06 03:49:33;;;;;;;18.27;15.93;;;;;;;16.93;100.00;99218.98;2934481;81;21012;-64
2021/08/06 03:53:36;;;;;;;19.55;17.57;;;;;;;16.97;100.00;99214.88;2933948;81;21010;-63
2021/08/06 03:57:54;;;;;;;15.28;12.75;;;;;;;17.03;100.00;99215.14;2934315;81;21005;-62
2021/08/06 04:01:57;;;;;;;19.25;13.93;;;;;;;17.07;100.00;99211.04;2933358;81;21041;-64
2021/08/06 04:05:59;;;;;;;14.75;13.15;;;;;;;17.03;100.00;99222.70;2934222;81;21017;-63
2021/08/06 04:10:08;;;;;;;17.10;13.32;;;;;;;17.00;100.00;99219.07;2933934;81;21061;-64
2021/08/06 04:14:11;;;;;;;26.23;14.18;;;;;;;16.98;100.00;99219.72;2934112;81;21006;-63
2021/08/06 04:18:14;;;;;;;17.82;14.20;;;;;;;16.94;100.00;99220.64;2934179;81;21057;-62
2021/08/06 04:22:17;;;;;;;17.07;13.62;;;;;;;16.91;100.00;99211.62;2934383;81;21052;-64
2021/08/06 04:26:19;;;;;;;14.45;11.75;;;;;;;16.91;100.00;99221.03;2934316;81;21001;-65
2021/08/06 04:30:23;;;;;;;17.60;12.93;;;;;;;16.91;100.00;99225.55;2934013;81;21037;-61
2021/08/06 04:34:25;;;;;;;13.10;11.65;;;;;;;16.94;100.00;99221.13;2933637;81;21511;-61
2021/08/06 04:38:27;;;;;;;14.50;13.00;;;;;;;16.97;100.00;99216.22;2933540;81;20998;-62
2021/08/06 04:42:30;;;;;;;15.35;11.90;;;;;;;16.99;100.00;99208.82;2932790;81;21544;-62
2021/08/06 04:46:35;;;;;;;18.17;13.65;;;;;;;17.02;100.00;99214.33;2929768;81;21039;-62
2021/08/06 04:50:39;;;;;;;22.17;14.35;;;;;;;16.99;100.00;99214.69;2929776;81;21002;-62
2021/08/06 04:54:41;;;;;;;16.20;12.07;;;;;;;16.98;100.00;99210.31;2929769;81;21024;-61
2021/08/06 04:58:44;;;;;;;14.50;12.85;;;;;;;16.91;100.00;99218.34;2904500;81;21539;-63
2021/08/06 05:02:46;;;;;;;14.87;13.25;;;;;;;16.92;100.00;99206.58;2899116;82;21000;-61
2021/08/06 05:06:49;;;;;;;14.80;13.35;;;;;;;16.98;100.00;99212.53;2899152;79;21046;-62
2021/08/06 05:10:53;;;;;;;13.78;10.00;;;;;;;16.98;100.00;99212.53;2899203;82;21098;-63
2021/08/06 05:14:55;;;;;;;15.45;10.65;;;;;;;16.96;100.00;99213.21;2875709;82;21003;-62
2021/08/06 05:18:57;;;;;;;13.45;11.73;;;;;;;16.96;100.00;99220.42;2899005;79;21043;-62
2021/08/06 05:22:59;;;;;;;17.25;11.78;;;;;;;16.92;100.00;99220.00;2899428;82;20955;-62
2021/08/06 05:27:02;;;;;;;14.23;11.95;;;;;;;16.90;100.00;99228.77;2899475;82;21642;-63
2021/08/06 05:31:04;;;;;;;12.98;11.68;;;;;;;16.91;100.00;99237.14;2899442;82;21047;-61
2021/08/06 05:35:07;;;;;;;13.83;12.53;;;;;;;16.92;100.00;99237.96;2898977;82;21117;-62
2021/08/06 05:39:09;;;;;;;12.07;10.88;;;;;;;17.01;100.00;99231.97;2899456;82;20995;-63
2021/08/06 05:43:11;;;;;;;14.73;12.98;;;;;;;17.13;100.00;99226.40;2917265;80;20953;-63
2021/08/06 05:47:16;;;;;;;20.50;12.47;;;;;;;17.17;100.00;99224.98;2939887;81;20989;-62
2021/08/06 05:51:18;;;;;;;19.75;13.90;;;;;;;17.24;100.00;99233.91;2939754;81;21021;-63
2021/08/06 05:55:20;;;;;;;13.55;12.05;;;;;;;17.30;100.00;99244.39;2939649;81;21016;-61
2021/08/06 05:59:22;;;;;;;15.60;12.33;;;;;;;17.33;100.00;99251.25;2940249;81;21009;-62
2021/08/06 06:03:25;;;;;;;14.95;13.35;;;;;;;17.34;100.00;99250.22;2939949;81;20993;-61
2021/08/06 06:07:27;;;;;;;15.72;14.05;;;;;;;17.34;100.00;99246.19;2940112;81;20997;-60
2021/08/06 06:11:29;;;;;;;18.23;15.23;;;;;;;17.37;100.00;99240.41;2939951;81;21107;-60
2021/08/06 06:15:32;;;;;;;18.60;16.42;;;;;;;17.43;100.00;99245.53;2940286;80;21019;-62
2021/08/06 06:19:36;;;;;;;18.15;14.83;;;;;;;17.47;100.00;99253.52;2940447;80;21095;-61
2021/08/06 06:23:39;;;;;;;16.70;14.05;;;;;;;17.47;100.00;99240.88;2940659;80;20973;-60
2021/08/06 06:28:02;;;;;;;17.27;15.55;;;;;;;17.46;100.00;99238.41;2940544;81;21000;-62
2021/08/06 06:32:06;;;;;;;17.17;14.68;;;;;;;17.50;100.00;99238.33;2920701;81;20977;-62
2021/08/06 06:36:09;;;;;;;18.30;16.07;;;;;;;17.60;100.00;99238.82;2921389;81;20981;-61
2021/08/06 06:40:13;;;;;;;17.27;15.40;;;;;;;17.72;100.00;99240.44;2882494;81;21010;-63
2021/08/06 06:44:16;;;;;;;12.10;10.93;;;;;;;17.85;100.00;99253.94;2855684;81;21019;-62
2021/08/06 06:48:18;;;;;;;18.20;15.10;;;;;;;18.07;100.00;99261.94;2822151;84;21509;-63
2021/08/06 06:52:19;;;;;;;17.35;14.83;;;;;;;18.29;100.00;99251.08;2839485;81;20983;-62
2021/08/06 06:56:23;;;;;;;14.20;12.55;;;;;;;18.46;100.00;99258.76;2837731;81;20963;-63
2021/08/06 07:00:31;;;;;;;14.58;13.03;;;;;;;18.49;99.98;99254.34;2864729;81;20999;-63
2021/08/06 07:04:33;;;;;;;15.03;13.32;;;;;;;18.53;100.00;99252.90;2858904;83;21046;-64
2021/08/06 07:08:39;;;;;;;17.05;14.15;;;;;;;18.59;99.34;99266.07;2869755;82;20975;-63
2021/08/06 07:12:42;;;;;;;14.10;11.88;;;;;;;18.67;99.76;99268.06;2870111;82;21074;-63
2021/08/06 07:16:46;;;;;;;14.75;13.22;;;;;;;18.90;99.72;99274.93;2869793;83;21018;-63
2021/08/06 07:20:49;;;;;;;12.80;11.43;;;;;;;19.10;98.89;99270.92;2868841;81;21007;-61
2021/08/06 07:24:50;;;;;;;15.53;12.90;;;;;;;19.31;98.01;99265.55;2850108;83;21018;-62
2021/08/06 07:28:52;;;;;;;13.93;12.53;;;;;;;19.47;98.25;99266.47;2835752;82;20991;-62
2021/08/06 07:32:54;;;;;;;16.05;12.75;;;;;;;19.63;97.02;99271.09;2869863;82;21047;-63
2021/08/06 07:36:56;;;;;;;13.55;11.90;;;;;;;19.71;96.46;99272.23;2842588;82;21063;-62
2021/08/06 07:40:58;;;;;;;12.18;10.85;;;;;;;19.74;95.41;99263.71;2847348;81;20991;-62
2021/08/06 07:44:59;;;;;;;11.18;8.95;;;;;;;19.69;94.07;99271.62;2859183;82;21007;-62
2021/08/06 07:49:01;;;;;;;14.68;10.45;;;;;;;19.78;95.49;99274.39;2833094;83;21509;-63
2021/08/06 07:53:03;;;;;;;9.50;8.60;;;;;;;19.92;94.74;99266.30;2871789;81;21053;-62
2021/08/06 07:57:05;;;;;;;9.88;8.98;;;;;;;20.12;92.96;99276.50;2861438;81;21018;-61
2021/08/06 08:01:07;;;;;;;9.65;8.25;;;;;;;20.24;93.21;99277.16;2862892;80;20982;-64
2021/08/06 08:05:10;;;;;;;11.57;9.63;;;;;;;20.32;92.60;99285.05;2869158;81;21010;-61
2021/08/06 08:09:15;;;;;;;10.48;8.70;;;;;;;20.32;91.47;99277.45;2853672;81;21015;-63
2021/08/06 08:13:18;;;;;;;16.20;6.75;;;;;;;20.32;91.47;99279.64;2861488;81;21057;-64
2021/08/06 08:17:20;;;;;;;8.40;7.40;;;;;;;20.46;90.55;99281.75;2871152;81;20986;-62
2021/08/06 08:21:24;;;;;;;6.70;6.10;;;;;;;20.60;89.76;99281.16;2864056;81;21034;-64
2021/08/06 08:25:28;;;;;;;8.10;6.42;;;;;;;20.96;90.91;99275.66;2842772;83;20971;-63
2021/08/06 08:29:29;;;;;;;5.70;5.15;;;;;;;21.35;87.32;99274.22;2843031;83;21057;-64
2021/08/06 08:33:35;;;;;;;4.95;4.45;;;;;;;21.73;83.97;99279.19;2843083;83;20986;-63
2021/08/06 08:37:39;;;;;;;4.35;3.95;;;;;;;21.99;84.30;99278.59;2843605;81;20975;-64
2021/08/06 08:41:43;;;;;;;6.47;5.35;;;;;;;22.19;82.27;99278.36;2842097;83;20995;-62
2021/08/06 08:45:47;;;;;;;4.33;4.00;;;;;;;22.36;82.38;99270.43;2848089;82;21024;-63
2021/08/06 08:49:54;;;;;;;5.70;4.30;;;;;;;22.36;78.52;99275.84;2879599;82;20996;-64
2021/08/06 08:54:20;;;;;;;5.58;3.67;;;;;;;22.24;80.60;99272.27;2879640;82;21031;-64
2021/08/06 08:58:24;;;;;;;3.00;2.60;;;;;;;22.19;80.03;99277.52;2870633;82;21039;-65
2021/08/06 09:02:26;;;;;;;4.00;3.33;;;;;;;22.17;78.50;99267.45;2950558;80;21380;-63
2021/08/06 09:06:44;;;;;;;4.33;2.62;;;;;;;22.26;77.43;99280.45;2949424;80;21076;-63
2021/08/06 09:10:46;;;;;;;2.70;2.50;;;;;;;22.26;78.60;99272.88;2932335;81;21494;-63
2021/08/06 09:14:50;;;;;;;4.53;3.15;;;;;;;22.27;76.45;99270.46;2925075;80;20969;-64
2021/08/06 09:18:51;;;;;;;4.53;3.22;;;;;;;22.29;76.51;99265.64;2924892;80;21050;-64
2021/08/06 09:22:53;;;;;;;4.30;3.05;;;;;;;22.43;78.41;99267.64;2925640;80;20972;-65
2021/08/06 09:26:56;;;;;;;2.33;2.12;;;;;;;22.46;75.47;99261.75;2924550;81;20981;-63
2021/08/06 09:31:01;;;;;;;1.95;1.55;;;;;;;22.54;73.64;99263.35;2885660;81;21036;-65
2021/08/06 09:35:04;;;;;;;1.70;1.32;;;;;;;22.69;70.23;99260.21;2884663;81;21064;-63
2021/08/06 09:39:20;;;;;;;2.72;1.55;;;;;;;22.85;70.18;99264.69;2839291;82;21534;-63
2021/08/06 09:43:25;;;;;;;1.32;1.10;;;;;;;23.00;64.96;99257.48;2863095;82;21005;-64
2021/08/06 09:47:32;;;;;;;2.15;1.90;;;;;;;23.22;63.37;99256.38;2842761;82;21021;-64
2021/08/06 09:51:40;;;;;;;1.20;1.10;;;;;;;23.40;62.45;99260.92;2841836;81;21017;-64
2021/08/06 09:55:48;;;;;;;1.42;0.72;;;;;;;23.54;60.77;99252.81;2861919;81;21034;-63
2021/08/06 09:59:57;;;;;;;1.52;1.35;;;;;;;23.62;58.62;99263.84;2811462;84;21098;-64
2021/08/06 10:04:06;;;;;;;2.27;1.00;;;;;;;23.86;61.09;99258.38;2809647;84;20968;-65
2021/08/06 10:08:10;;;;;;;1.27;1.10;;;;;;;23.90;59.62;99260.09;2823810;84;20988;-64
2021/08/06 10:12:14;;;;;;;1.57;1.47;;;;;;;23.81;58.41;99263.19;2834555;84;21048;-63
2021/08/06 10:16:20;;;;;;;1.55;1.45;;;;;;;23.85;61.88;99264.06;2816575;84;20996;-63
2021/08/06 10:20:26;;;;;;;1.45;1.35;;;;;;;24.04;61.56;99256.08;2780154;84;21026;-64
2021/08/06 10:24:28;;;;;;;1.92;1.52;;;;;;;24.29;59.48;99254.13;2750782;85;20970;-64
2021/08/06 10:28:32;;;;;;;1.35;1.25;;;;;;;24.50;61.01;99248.53;2703304;88;21030;-62
2021/08/06 10:32:35;;;;;;;1.15;0.98;;;;;;;24.68;59.55;99239.36;2791099;83;21553;-63
2021/08/06 10:36:44;;;;;;;1.62;1.52;;;;;;;24.61;57.21;99235.42;2793146;83;21016;-63
2021/08/06 10:40:55;;;;;;;1.50;1.10;;;;;;;24.60;57.38;99241.09;2786133;85;20993;-64
2021/08/06 10:44:57;;;;;;;2.27;1.00;;;;;;;24.50;56.90;99243.93;2788520;84;21003;-64
2021/08/06 10:49:10;;;;;;;3.22;1.15;;;;;;;24.17;57.24;99248.70;2793737;85;21003;-64
2021/08/06 10:53:23;;;;;;;2.98;1.50;;;;;;;23.78;59.20;99257.40;2794044;85;20975;-64
2021/08/06 10:57:29;;;;;;;3.37;1.22;;;;;;;23.40;61.99;99255.48;2847524;82;21051;-65
2021/08/06 11:01:34;;;;;;;2.75;1.77;;;;;;;23.04;62.21;99249.17;2876141;83;20980;-65
2021/08/06 11:05:42;;;;;;;3.90;1.30;;;;;;;22.86;64.34;99251.42;2876006;83;21454;-65
2021/08/06 11:09:50;;;;;;;1.52;1.42;;;;;;;22.80;65.71;99253.20;2875313;82;21008;-64
2021/08/06 11:13:52;;;;;;;1.62;1.30;;;;;;;23.12;64.63;99246.11;2875189;83;21051;-65
2021/08/06 11:17:55;;;;;;;1.02;0.95;;;;;;;23.58;61.88;99249.62;2875801;83;21040;-63
2021/08/06 11:21:58;;;;;;;1.70;1.32;;;;;;;24.00;59.62;99237.23;2875786;83;21024;-63
2021/08/06 11:26:08;;;;;;;3.12;1.27;;;;;;;24.21;59.66;99237.13;2854714;83;21006;-64
2021/08/06 11:30:19;;;;;;;2.27;1.15;;;;;;;24.57;58.07;99238.87;2837299;82;20998;-64
2021/08/06 11:34:20;;;;;;;2.45;1.82;;;;;;;24.55;57.41;99242.38;2828781;82;21002;-64
2021/08/06 11:38:25;;;;;;;0.95;0.95;;;;;;;24.53;59.13;99235.80;2865304;82;21068;-63
2021/08/06 11:42:27;;;;;;;3.02;1.32;;;;;;;24.73;57.13;99223.13;2807640;84;21008;-64
2021/08/06 11:46:34;;;;;;;1.12;0.98;;;;;;;24.90;55.47;99234.59;2796884;84;21059;-63
2021/08/06 11:50:50;;;;;;;1.20;1.10;;;;;;;25.07;54.27;99220.98;2793995;84;21023;-62
2021/08/06 11:54:53;;;;;;;3.52;1.27;;;;;;;24.92;53.33;99219.65;2780517;85;21011;-62
2021/08/06 11:58:58;;;;;;;2.35;1.00;;;;;;;25.16;54.81;99218.14;2785964;84;21054;-62
2021/08/06 12:03:24;;;;;;;1.20;1.10;;;;;;;25.18;52.97;99212.44;2848135;82;21022;-63
2021/08/06 12:07:35;;;;;;;1.30;1.20;;;;;;;25.17;53.16;99218.42;2855604;82;21008;-63
2021/08/06 12:11:47;;;;;;;1.35;0.88;;;;;;;25.29;52.45;99209.33;2843729;82;21065;-63
2021/08/06 12:16:12;;;;;;;3.12;1.00;;;;;;;25.64;53.34;99208.22;2833242;82;21002;-62
2021/08/06 12:20:40;;;;;;;2.15;1.17;;;;;;;25.80;51.16;99207.34;2825636;82;21053;-63
2021/08/06 12:24:47;;;;;;;1.80;0.80;;;;;;;25.85;49.21;99206.59;2807537;83;21022;-63
2021/08/06 12:29:11;;;;;;;1.87;1.02;;;;;;;25.93;50.17;99195.76;2808391;85;21387;-62
2021/08/06 12:33:22;;;;;;;1.05;0.78;;;;;;;25.80;51.04;99199.17;2808666;85;21014;-62
2021/08/06 12:37:34;;;;;;;0.93;0.85;;;;;;;25.70;52.49;99189.50;2808238;85;20994;-62
2021/08/06 12:41:37;;;;;;;2.10;1.02;;;;;;;25.64;51.54;99198.13;2840081;82;21024;-63
2021/08/06 12:45:39;;;;;;;2.85;1.10;;;;;;;25.53;51.88;99193.64;2827092;82;20947;-62
2021/08/06 12:49:47;;;;;;;1.25;1.10;;;;;;;25.40;52.12;99198.89;2808544;85;21021;-62
2021/08/06 12:53:48;;;;;;;2.22;1.35;;;;;;;25.25;51.24;99194.02;2828241;82;20982;-62
2021/08/06 12:57:56;;;;;;;1.00;0.68;;;;;;;25.09;51.89;99188.91;2850986;82;21021;-65
2021/08/06 13:02:19;;;;;;;0.75;0.60;;;;;;;24.98;52.41;99196.08;2863560;82;21510;-65
2021/08/06 13:06:22;;;;;;;3.40;1.10;;;;;;;24.90;51.81;99208.75;2840450;82;20990;-63
2021/08/06 13:10:30;;;;;;;1.05;0.85;;;;;;;24.80;52.22;99208.05;2857966;82;21526;-64
2021/08/06 13:14:32;;;;;;;2.72;1.50;;;;;;;24.75;51.96;99217.42;2858738;82;21018;-63
2021/08/06 13:18:36;;;;;;;2.12;1.15;;;;;;;24.65;52.34;99216.19;2858770;82;21057;-62
2021/08/06 13:22:38;;;;;;;1.30;0.85;;;;;;;24.62;51.74;99198.17;2874918;82;20989;-64
2021/08/06 13:26:42;;;;;;;1.02;0.70;;;;;;;24.47;51.17;99215.89;2861977;82;21018;-64
2021/08/06 13:30:45;;;;;;;0.60;0.60;;;;;;;24.36;52.84;99214.84;2835755;83;21041;-64
2021/08/06 13:34:47;;;;;;;0.93;0.70;;;;;;;24.29;53.83;99200.59;2835705;83;20990;-64
2021/08/06 13:38:49;;;;;;;4.72;1.30;;;;;;;24.14;53.13;99204.38;2835327;83;21001;-64
2021/08/06 13:42:50;;;;;;;1.47;0.88;;;;;;;24.01;55.69;99207.66;2841533;81;21035;-65
2021/08/06 13:46:52;;;;;;;1.47;0.95;;;;;;;23.87;56.14;99215.22;2845343;81;20995;-65
2021/08/06 13:50:54;;;;;;;0.78;0.72;;;;;;;23.66;56.80;99216.70;2858111;83;21494;-63
2021/08/06 13:54:55;;;;;;;1.15;0.60;;;;;;;23.45;58.69;99218.13;2857861;82;20968;-63
2021/08/06 13:58:59;;;;;;;5.87;1.72;;;;;;;23.27;59.64;99216.37;2851277;82;20960;-66
2021/08/06 14:03:01;;;;;;;1.45;0.90;;;;;;;23.18;59.52;99223.46;2849940;83;20964;-63
2021/08/06 14:07:08;;;;;;;1.55;1.00;;;;;;;23.05;58.60;99221.80;2849953;83;21008;-64
2021/08/06 14:11:10;;;;;;;2.25;1.47;;;;;;;22.99;59.79;99223.27;2849315;83;21099;-64
2021/08/06 14:15:13;;;;;;;0.98;0.90;;;;;;;22.92;58.19;99224.76;2849932;83;20980;-64
2021/08/06 14:19:19;;;;;;;2.17;1.47;;;;;;;22.78;59.46;99226.83;2849714;83;20975;-63
2021/08/06 14:23:20;;;;;;;;;;;;;;;22.64;60.46;99235.19;2796508;83;21503;-64
2021/08/06 14:27:22;;;;;;;2.42;0.93;;;;;;;22.63;61.83;99234.88;2776024;85;20123;-65
2021/08/06 14:31:24;;;;;;;1.90;1.30;;;;;;;22.63;61.30;99232.69;2751601;85;20994;-64
2021/08/06 14:35:26;;;;;;;2.10;1.30;;;;;;;22.72;61.74;99229.13;2796703;84;21075;-64
2021/08/06 14:39:29;;;;;;;2.10;1.10;;;;;;;22.73;61.27;99236.19;2796536;83;21046;-64
2021/08/06 14:43:31;;;;;;;1.40;1.30;;;;;;;22.70;62.97;99233.95;2762433;85;21133;-65
2021/08/06 14:47:37;;;;;;;2.42;1.42;;;;;;;22.64;63.59;99239.25;2700631;88;20999;-64
2021/08/06 14:51:38;;;;;;;2.83;1.52;;;;;;;22.60;63.09;99247.55;2724878;86;21473;-64
2021/08/06 14:55:43;;;;;;;1.65;1.40;;;;;;;22.57;62.47;99253.41;2701195;88;20998;-64
2021/08/06 14:59:48;;;;;;;2.10;0.88;;;;;;;22.49;62.14;99251.03;2827329;83;21026;-64
2021/08/06 15:03:50;;;;;;;2.52;1.42;;;;;;;22.37;61.86;99252.31;2841036;83;21006;-64
2021/08/06 15:07:52;;;;;;;1.75;1.07;;;;;;;22.28;61.78;99243.67;2875284;83;21053;-64
2021/08/06 15:11:55;;;;;;;2.98;1.45;;;;;;;22.31;62.08;99235.62;2874665;83;21080;-64
2021/08/06 15:15:58;;;;;;;1.52;1.32;;;;;;;22.36;62.40;99247.41;2874868;83;20998;-64
2021/08/06 15:20:03;;;;;;;3.05;1.37;;;;;;;22.34;62.00;99259.55;2875225;83;20978;-64
2021/08/06 15:24:06;;;;;;;1.15;1.02;;;;;;;22.33;63.09;99267.38;2875044;83;20978;-65
2021/08/06 15:28:13;;;;;;;4.12;1.57;;;;;;;22.29;63.51;99274.28;2874725;83;20997;-65
2021/08/06 15:32:17;;;;;;;1.37;1.27;;;;;;;22.25;64.56;99280.70;2874608;83;20990;-64
2021/08/06 15:36:20;;;;;;;1.95;1.70;;;;;;;22.14;67.65;99292.28;2874577;83;21030;-64
2021/08/06 15:40:22;;;;;;;2.62;1.50;;;;;;;22.01;68.68;99290.05;2873720;83;21005;-65
2021/08/06 15:44:24;;;;;;;2.95;1.40;;;;;;;21.84;68.06;99281.67;2852013;82;21546;-65
2021/08/06 15:48:28;;;;;;;1.52;1.37;;;;;;;21.70;66.97;99279.64;2852871;83;21080;-63
2021/08/06 15:52:30;;;;;;;1.02;0.80;;;;;;;21.59;66.71;99273.56;2847298;83;21039;-64
2021/08/06 15:56:32;;;;;;;1.85;1.00;;;;;;;21.53;66.81;99269.90;2847460;82;21005;-64
2021/08/06 16:00:34;;;;;;;4.58;1.65;;;;;;;21.52;66.61;99258.23;2856868;82;21009;-64
2021/08/06 16:04:36;;;;;;;3.70;1.42;;;;;;;21.43;67.62;99257.39;2864827;82;21044;-64
2021/08/06 16:08:39;;;;;;;2.65;1.37;;;;;;;21.38;67.13;99252.64;2830839;84;21521;-64
2021/08/06 16:12:46;;;;;;;1.35;1.22;;;;;;;21.36;66.79;99246.13;2853665;82;21026;-65
2021/08/06 16:16:49;;;;;;;2.42;2.22;;;;;;;21.39;66.34;99248.38;2855646;82;21032;-64
2021/08/06 16:20:50;;;;;;;1.77;1.07;;;;;;;21.47;66.68;99248.62;2840521;82;21068;-64
2021/08/06 16:24:54;;;;;;;1.32;1.10;;;;;;;21.60;64.80;99244.11;2859377;82;21009;-65
2021/08/06 16:28:55;;;;;;;1.32;1.22;;;;;;;21.75;63.66;99240.55;2842526;82;21057;-64
2021/08/06 16:32:57;;;;;;;3.50;1.25;;;;;;;21.87;62.99;99235.75;2850180;82;21053;-64
2021/08/06 16:37:04;;;;;;;2.08;1.05;;;;;;;21.97;62.22;99241.44;2861425;82;30520;-64
2021/08/06 16:41:06;;;;;;;1.85;1.65;;;;;;;22.04;62.75;99238.14;2859604;82;21037;-65
2021/08/06 16:45:11;;;;;;;2.52;2.27;;;;;;;22.14;62.22;99238.12;2837759;82;21013;-64
2021/08/06 16:49:13;;;;;;;2.00;1.87;;;;;;;22.18;63.12;99226.61;2850316;82;21009;-64
2021/08/06 16:53:15;;;;;;;3.50;3.17;;;;;;;22.24;64.82;99227.04;2872390;82;20993;-64
2021/08/06 16:57:17;;;;;;;4.53;1.10;;;;;;;22.30;66.81;99224.47;2856921;82;21074;-64
2021/08/06 17:01:21;;;;;;;2.55;1.12;;;;;;;22.37;64.90;99217.91;2821115;82;21019;-64
2021/08/06 17:05:23;;;;;;;1.40;1.30;;;;;;;22.47;63.96;99214.67;2810255;83;21026;-64
2021/08/06 17:09:25;;;;;;;1.87;1.67;;;;;;;22.62;62.96;99225.11;2845649;82;21595;-64
2021/08/06 17:13:27;;;;;;;4.97;1.27;;;;;;;22.76;63.28;99221.66;2815475;82;20994;-64
2021/08/06 17:17:30;;;;;;;2.45;1.77;;;;;;;22.83;64.52;99226.44;2802640;83;21078;-63
2021/08/06 17:21:35;;;;;;;1.70;1.20;;;;;;;22.85;65.61;99231.64;2848612;83;20995;-64
2021/08/06 17:25:36;;;;;;;3.02;1.90;;;;;;;22.86;67.05;99231.93;2848357;83;21065;-64
2021/08/06 17:29:41;;;;;;;5.37;3.12;;;;;;;22.80;67.03;99230.97;2848390;83;21058;-65
2021/08/06 17:33:42;;;;;;;3.70;2.62;;;;;;;22.79;67.33;99239.32;2848107;83;20990;-64
2021/08/06 17:37:46;;;;;;;6.03;3.08;;;;;;;22.75;65.32;99247.63;2848259;83;21014;-64
2021/08/06 17:41:48;;;;;;;4.92;2.87;;;;;;;22.72;66.46;99246.73;2848374;83;21014;-65
2021/08/06 17:45:50;;;;;;;4.72;3.12;;;;;;;22.66;66.80;99245.26;2847910;82;21026;-65
2021/08/06 17:49:53;;;;;;;8.95;3.98;;;;;;;22.59;66.83;99249.93;2839467;82;21013;-65
2021/08/06 17:53:55;;;;;;;3.17;2.87;;;;;;;22.48;67.83;99246.13;2824669;82;21034;-66
2021/08/06 17:57:57;;;;;;;4.40;2.87;;;;;;;22.33;67.97;99245.70;2828282;82;21018;-64
2021/08/06 18:02:00;;;;;;;3.90;3.02;;;;;;;22.29;68.11;99239.06;2846716;83;21025;-64
2021/08/06 18:06:02;;;;;;;4.05;3.17;;;;;;;22.22;68.41;99242.70;2828960;83;21029;-65
2021/08/06 18:10:06;;;;;;;3.50;2.65;;;;;;;22.15;69.03;99236.55;2866830;83;21598;-66
2021/08/06 18:14:07;;;;;;;7.12;3.80;;;;;;;22.06;69.09;99241.96;2872623;82;21029;-65
2021/08/06 18:18:10;;;;;;;5.97;3.33;;;;;;;22.00;70.08;99242.34;2872373;83;21015;-66
2021/08/06 18:22:12;;;;;;;5.83;4.35;;;;;;;21.94;69.93;99238.68;2854003;83;21057;-65
2021/08/06 18:26:14;;;;;;;10.35;5.03;;;;;;;21.84;70.70;99227.54;2844126;83;21036;-65
2021/08/06 18:30:21;;;;;;;9.60;6.08;;;;;;;21.70;70.39;99232.28;2831825;83;21057;-65
2021/08/06 18:34:22;;;;;;;6.15;4.95;;;;;;;21.61;70.89;99230.37;2831039;83;21041;-65
2021/08/06 18:43:30;;;;;;;15.50;9.43;;;;;;;21.25;70.80;99242.27;2778860;84;21861;-67
2021/08/06 18:52:44;;;;;;;7.17;5.42;;;;;;;20.97;70.83;99246.77;2793063;84;21031;-64
2021/08/06 18:56:48;;;;;;;12.45;7.60;;;;;;;20.80;70.74;99247.30;2812133;84;21039;-66
2021/08/06 19:00:52;;;;;;;8.48;4.35;;;;;;;20.68;71.41;99248.49;2797482;84;21098;-65
2021/08/06 19:04:53;;;;;;;8.58;5.95;;;;;;;20.55;71.67;99255.31;2795446;84;21035;-65
2021/08/06 19:08:55;;;;;;;8.85;6.65;;;;;;;20.43;72.06;99263.28;2781998;84;21012;-65
2021/08/06 19:12:57;;;;;;;9.28;6.65;;;;;;;20.31;72.53;99259.59;2797098;84;21134;-65
2021/08/06 19:17:00;;;;;;;13.13;8.08;;;;;;;20.19;73.39;99255.39;2793454;84;20980;-67